Western Neb. Rgnl/William B. Heilig Airport
KBFF : now visible

Airfield :











YOU CAN JOIN US ON...

 
LOGIN :

Register | Disclaimer

   EN    FR    IT 

 









Legend :    VFR   Marginal VFR   IFR   Intensive IFR   Very Intensive IFR
Visi :
Ceiling :
>= 8 km
>= 3000ft
5 to 8 km
1000 to 3000 ft
1500m to 5 km
500 to 1000 ft
800 to 1500m
200 to 500 ft
< 800m
< 200 ft
Symbols :   Thunderstorms  Fog  Heavy snow  Heavy precipitations  Wind > 20 kt







- Airport Elevation : 3967 ft
- IATA code : BFF


KBFF - Western Neb. Rgnl/William B. Heilig

CURRENT METAR :
  • 200753Z AUTO 09012KT 10SM -RA OVC017 04/02 A3003 RMK AO2 RAB08 SLP169 P0001 T00390022 TSNO $

EXPIRED METARs :
  • 200653Z AUTO 10010KT 10SM OVC020 05/01 A3003 RMK AO2 SLP166 T00500011 401220017 TSNO $
  • 200641Z AUTO 09013KT 10SM BKN021 OVC050 05/01 A3003 RMK AO2 T00500006 TSNO $
  • 200553Z AUTO 09013KT 10SM OVC049 05/01 A3003 RMK AO2 SLP168 60000 T00500006 10094 20050 53007 TSNO $

TAF KBFF
Valid from the 20 at 06:00 until the 21 at 06:00 UTC


200520Z 2006/2106 07014KT P6SM VCSH SCT020 BKN040
FM201100 10018G28KT P6SM BKN020
FM201200 12020G30KT 3SM -RA BR BKN006 OVC015
FM201500 12015G25KT 2SM -RA BR OVC005
KZDV FIR / North America



MET'MAP, your aeronautical weather chart ! - Copyright ORBIFLY December 2007 - Disclaimer

ORBIFLY MET'MAP TEAM :

Programming & Development : Alexandra Zaïnal
Concept & Development : Baudouin d'Aumeries
Co-Development & Prog : Marc-Olivier Méhu
Technical & hardware support : Manuel Goepfert

Contact : metmap@orbifly.com




SOURCES & CREDITS :

   NOAA       Earth
Advisory